createdAt,value
2019-02-07T00:02:17.869Z,12.93
2019-02-07T00:04:51.459Z,13.20
2019-02-07T00:07:25.269Z,13.47
2019-02-07T00:09:59.058Z,13.50
2019-02-07T00:12:32.912Z,12.57
2019-02-07T00:15:06.790Z,13.13
2019-02-07T00:17:40.457Z,12.83
2019-02-07T00:20:15.477Z,12.87
2019-02-07T00:22:49.068Z,11.83
2019-02-07T00:25:22.812Z,11.27
2019-02-07T00:27:56.636Z,12.27
2019-02-07T00:30:30.444Z,12.63
2019-02-07T00:33:04.325Z,12.97
2019-02-07T00:35:38.064Z,11.93
2019-02-07T00:38:11.733Z,13.60
2019-02-07T00:40:45.457Z,12.97
2019-02-07T00:43:19.149Z,13.83
2019-02-07T00:45:52.724Z,11.97
2019-02-07T00:48:26.453Z,13.20
2019-02-07T00:51:00.260Z,12.17
2019-02-07T00:53:33.992Z,12.97
2019-02-07T00:56:07.766Z,12.30
2019-02-07T00:58:41.501Z,11.80
2019-02-07T01:01:15.988Z,12.17
2019-02-07T01:03:50.625Z,12.77
2019-02-07T01:06:25.153Z,12.80
2019-02-07T01:08:58.874Z,11.87
2019-02-07T01:11:32.728Z,12.70
2019-02-07T01:14:07.268Z,12.50
2019-02-07T01:16:41.024Z,14.20
2019-02-07T01:19:14.705Z,13.60
2019-02-07T01:21:48.456Z,12.30
2019-02-07T01:24:22.184Z,11.97
2019-02-07T01:26:56.814Z,12.87
2019-02-07T01:29:30.551Z,13.00
2019-02-07T01:32:04.372Z,14.07
2019-02-07T01:34:38.241Z,12.87
2019-02-07T01:37:11.920Z,13.17
2019-02-07T01:39:45.777Z,12.33
2019-02-07T01:42:20.268Z,13.00
2019-02-07T01:44:54.036Z,12.33
2019-02-07T01:47:27.916Z,12.37
2019-02-07T01:50:02.610Z,12.50
2019-02-07T01:52:36.363Z,12.07
2019-02-07T01:55:10.110Z,12.00
2019-02-07T01:57:43.877Z,12.60
2019-02-07T02:00:17.454Z,12.37
2019-02-07T02:02:51.278Z,12.43
2019-02-07T02:05:25.169Z,14.03
2019-02-07T02:07:59.669Z,12.03
2019-02-07T02:10:33.368Z,12.07
2019-02-07T02:13:07.101Z,12.20
2019-02-07T02:15:41.008Z,13.20
2019-02-07T02:18:15.616Z,10.70
2019-02-07T02:20:49.299Z,12.27
2019-02-07T02:23:23.064Z,11.93
2019-02-07T02:25:56.916Z,12.30
2019-02-07T02:28:30.684Z,11.87
2019-02-07T02:31:04.541Z,10.80
2019-02-07T02:33:38.144Z,11.43
2019-02-07T02:36:12.045Z,12.13
2019-02-07T02:38:46.480Z,11.90
2019-02-07T02:41:20.213Z,13.47
2019-02-07T02:43:53.909Z,12.00
2019-02-07T02:46:28.496Z,13.57
2019-02-07T02:49:02.191Z,12.53
2019-02-07T02:51:35.964Z,13.03
2019-02-07T02:54:09.821Z,12.97
2019-02-07T02:56:43.552Z,12.73
2019-02-07T02:59:17.255Z,12.97
2019-02-07T03:01:51.857Z,12.00
2019-02-07T03:04:26.377Z,10.97
2019-02-07T03:07:00.091Z,12.57
2019-02-07T03:09:34.709Z,11.17
2019-02-07T03:12:09.320Z,12.00
2019-02-07T03:14:43.132Z,13.53
2019-02-07T03:17:17.053Z,12.50
2019-02-07T03:19:51.037Z,11.40
2019-02-07T03:22:24.813Z,11.47
2019-02-07T03:24:58.592Z,10.80
2019-02-07T03:27:33.222Z,11.83
2019-02-07T03:30:08.115Z,10.57
2019-02-07T03:32:41.814Z,12.10
2019-02-07T03:35:15.616Z,12.10
2019-02-07T03:37:49.697Z,11.60
2019-02-07T03:40:23.972Z,11.73
2019-02-07T03:42:57.899Z,11.23
2019-02-07T03:45:31.650Z,10.63
2019-02-07T03:48:06.391Z,10.87
2019-02-07T03:50:40.832Z,10.93
2019-02-07T03:53:14.942Z,10.30
2019-02-07T03:55:48.561Z,11.77
2019-02-07T03:58:22.269Z,10.73
2019-02-07T04:00:56.087Z,12.03
2019-02-07T04:03:29.834Z,11.13
2019-02-07T04:06:03.375Z,11.17
2019-02-07T04:08:37.242Z,11.77
2019-02-07T04:11:11.697Z,11.57
2019-02-07T04:13:45.789Z,13.00
2019-02-07T04:16:20.155Z,10.53
2019-02-07T04:18:54.616Z,12.57
2019-02-07T04:21:28.404Z,12.73
2019-02-07T04:24:02.249Z,12.37
2019-02-07T04:26:37.213Z,11.47
2019-02-07T04:29:10.885Z,12.87
2019-02-07T04:31:44.721Z,11.50
2019-02-07T04:34:18.900Z,12.47
2019-02-07T04:36:52.745Z,11.23
2019-02-07T04:39:26.765Z,12.83
2019-02-07T04:42:00.437Z,11.23
2019-02-07T04:44:34.363Z,12.30
2019-02-07T04:47:08.105Z,12.57
2019-02-07T04:49:41.897Z,12.20
2019-02-07T04:52:15.590Z,13.67
2019-02-07T04:54:50.156Z,12.23
2019-02-07T04:57:24.713Z,11.80
2019-02-07T04:59:58.433Z,13.60
2019-02-07T05:02:32.304Z,12.33
2019-02-07T05:05:06.774Z,13.53
2019-02-07T05:07:40.845Z,13.13
2019-02-07T05:10:14.444Z,14.53
2019-02-07T05:12:48.305Z,12.77
2019-02-07T05:15:23.303Z,13.70
2019-02-07T05:17:56.961Z,13.43
2019-02-07T05:20:30.824Z,11.73
2019-02-07T05:23:05.520Z,12.37
2019-02-07T05:25:40.092Z,12.07
2019-02-07T05:28:13.823Z,11.03
2019-02-07T05:30:47.660Z,11.50
2019-02-07T05:33:22.140Z,13.20
2019-02-07T05:35:56.808Z,11.07
2019-02-07T05:38:30.614Z,12.73
2019-02-07T05:41:05.237Z,12.70
2019-02-07T05:43:39.070Z,13.53
2019-02-07T05:46:12.757Z,13.83
2019-02-07T05:48:46.778Z,11.97
2019-02-07T05:51:20.469Z,12.60
2019-02-07T05:53:54.310Z,15.07
2019-02-07T05:56:28.181Z,12.27
2019-02-07T05:59:01.940Z,14.47
2019-02-07T06:01:35.673Z,13.17
2019-02-07T06:04:09.548Z,13.20
2019-02-07T06:06:43.227Z,13.97
2019-02-07T06:09:17.285Z,12.03
2019-02-07T06:11:52.043Z,12.83
2019-02-07T06:14:26.758Z,12.90
2019-02-07T06:17:02.678Z,12.57
2019-02-07T06:19:34.480Z,12.67
2019-02-07T06:22:09.021Z,12.80
2019-02-07T06:24:42.893Z,12.50
2019-02-07T06:27:17.225Z,13.87
2019-02-07T06:29:50.873Z,12.60
2019-02-07T06:32:24.582Z,10.87
2019-02-07T06:34:58.474Z,14.00
2019-02-07T06:37:32.200Z,13.47
2019-02-07T06:40:05.796Z,12.27
2019-02-07T06:42:39.576Z,10.40
2019-02-07T06:45:13.291Z,11.73
2019-02-07T06:47:47.317Z,11.40
2019-02-07T06:50:21.092Z,12.43
2019-02-07T06:52:55.022Z,12.50
2019-02-07T06:55:28.648Z,11.37
2019-02-07T06:58:02.479Z,13.30
2019-02-07T07:00:36.345Z,12.87
2019-02-07T07:03:10.212Z,11.87
2019-02-07T07:05:44.232Z,12.27
2019-02-07T07:08:17.904Z,11.23
2019-02-07T07:10:51.740Z,10.73
2019-02-07T07:13:25.576Z,12.07
2019-02-07T07:15:59.483Z,11.77
2019-02-07T07:18:33.981Z,12.57
2019-02-07T07:21:07.713Z,12.07
2019-02-07T07:23:41.522Z,13.70
2019-02-07T07:26:15.413Z,12.60
2019-02-07T07:28:49.009Z,12.27
2019-02-07T07:31:23.472Z,11.30
2019-02-07T07:33:57.366Z,12.43
2019-02-07T07:36:32.182Z,12.17
2019-02-07T07:39:05.857Z,11.97
2019-02-07T07:41:39.725Z,12.63
2019-02-07T07:44:14.389Z,12.60
2019-02-07T07:46:48.204Z,10.60
2019-02-07T07:49:22.820Z,11.40
2019-02-07T07:51:56.876Z,11.10
2019-02-07T07:54:30.697Z,14.43
2019-02-07T07:57:05.412Z,11.80
2019-02-07T07:59:39.121Z,11.27
2019-02-07T08:02:12.847Z,12.17
2019-02-07T08:04:46.481Z,10.93
2019-02-07T08:07:20.206Z,12.07
2019-02-07T08:09:53.825Z,10.37
2019-02-07T08:12:27.696Z,10.43
2019-02-07T08:15:01.769Z,10.60
2019-02-07T08:17:35.501Z,10.40
2019-02-07T08:20:10.104Z,12.77
2019-02-07T08:22:43.991Z,9.80
2019-02-07T08:25:17.748Z,9.93
2019-02-07T08:27:51.568Z,11.73
2019-02-07T08:30:36.258Z,11.00
2019-02-07T08:33:00.824Z,8.37
2019-02-07T08:35:35.276Z,9.33
2019-02-07T08:38:09.774Z,9.47
2019-02-07T08:40:43.601Z,10.40
2019-02-07T08:43:18.113Z,10.30
2019-02-07T08:45:51.924Z,10.43
2019-02-07T08:48:25.808Z,10.23
2019-02-07T08:50:59.470Z,10.77
2019-02-07T08:53:34.224Z,9.70
2019-02-07T08:56:08.223Z,9.93
2019-02-07T08:58:42.757Z,9.80
2019-02-07T09:01:16.500Z,10.67
2019-02-07T09:03:50.381Z,11.07
2019-02-07T09:06:24.128Z,9.20
2019-02-07T09:08:58.620Z,10.77
2019-02-07T09:11:32.654Z,10.37
2019-02-07T09:14:06.603Z,10.40
2019-02-07T09:16:40.321Z,9.53
2019-02-07T09:19:14.411Z,10.07
2019-02-07T09:21:48.132Z,10.73
2019-02-07T09:24:21.920Z,12.37
2019-02-07T09:26:56.380Z,10.87
2019-02-07T09:29:30.255Z,9.70
2019-02-07T09:32:03.812Z,11.77
2019-02-07T09:34:37.818Z,11.73
2019-02-07T09:37:11.749Z,12.17
2019-02-07T09:39:46.262Z,10.53
2019-02-07T09:42:20.768Z,12.17
2019-02-07T09:44:55.597Z,9.33
2019-02-07T09:47:30.016Z,10.83
2019-02-07T09:50:03.746Z,11.03
2019-02-07T09:52:37.704Z,11.37
2019-02-07T09:55:11.628Z,11.33
2019-02-07T09:57:45.509Z,8.97
2019-02-07T10:00:19.185Z,11.27
2019-02-07T10:02:53.665Z,12.23
2019-02-07T10:05:28.197Z,11.43
2019-02-07T10:08:02.090Z,12.00
2019-02-07T10:10:36.295Z,11.47
2019-02-07T10:13:10.013Z,11.13
2019-02-07T10:15:43.725Z,10.70
2019-02-07T10:18:18.249Z,11.43
2019-02-07T10:20:51.991Z,11.83
2019-02-07T10:23:26.412Z,11.77
2019-02-07T10:26:00.426Z,10.93
2019-02-07T10:28:35.001Z,11.03
2019-02-07T10:31:09.087Z,11.33
2019-02-07T10:33:42.776Z,12.07
2019-02-07T10:36:16.461Z,11.50
2019-02-07T10:38:50.308Z,10.33
2019-02-07T10:41:24.029Z,10.73
2019-02-07T10:43:59.086Z,11.27
2019-02-07T10:46:33.812Z,11.03
2019-02-07T10:49:08.405Z,10.63
2019-02-07T10:51:42.222Z,10.97
2019-02-07T10:54:15.975Z,11.00
2019-02-07T10:56:50.575Z,12.63
2019-02-07T10:59:24.444Z,10.77
2019-02-07T11:01:59.220Z,11.57
2019-02-07T11:04:33.004Z,10.90
2019-02-07T11:07:07.142Z,11.83
2019-02-07T11:09:41.157Z,12.17
2019-02-07T11:12:15.553Z,10.50
2019-02-07T11:14:49.633Z,11.47
2019-02-07T11:17:23.296Z,11.03
2019-02-07T11:19:58.089Z,11.70
2019-02-07T11:22:32.077Z,10.77
2019-02-07T11:25:05.984Z,10.40
2019-02-07T11:27:42.320Z,9.07
2019-02-07T11:30:13.281Z,11.30
2019-02-07T11:32:47.522Z,10.40
2019-02-07T11:35:21.248Z,9.80
2019-02-07T11:37:54.998Z,10.23
2019-02-07T11:40:28.836Z,9.97
2019-02-07T11:43:02.665Z,10.57
2019-02-07T11:45:36.992Z,9.63
2019-02-07T11:48:10.572Z,9.57
2019-02-07T11:50:44.332Z,10.87
2019-02-07T11:53:18.016Z,9.60
2019-02-07T11:55:52.545Z,10.47
2019-02-07T11:58:27.547Z,9.87
2019-02-07T12:01:00.962Z,9.53
2019-02-07T12:03:35.644Z,9.43
2019-02-07T12:06:09.591Z,10.27
2019-02-07T12:08:44.108Z,9.43
2019-02-07T12:11:18.045Z,9.93
2019-02-07T12:13:52.581Z,9.60
2019-02-07T12:16:26.374Z,9.97
2019-02-07T12:19:00.092Z,9.17
2019-02-07T12:21:34.257Z,10.47
2019-02-07T12:24:07.970Z,9.67
2019-02-07T12:26:41.865Z,9.10
2019-02-07T12:29:15.608Z,11.27
2019-02-07T12:31:50.128Z,9.67
2019-02-07T12:34:23.798Z,10.07
2019-02-07T12:36:57.657Z,9.97
2019-02-07T12:39:31.778Z,8.87
2019-02-07T12:42:05.457Z,10.20
2019-02-07T12:44:39.926Z,9.07
2019-02-07T12:47:13.590Z,9.10
2019-02-07T12:49:47.321Z,10.23
2019-02-07T12:52:20.932Z,9.17
2019-02-07T12:54:55.029Z,9.33
2019-02-07T12:57:29.517Z,9.47
2019-02-07T13:00:03.964Z,10.33
2019-02-07T13:02:37.677Z,9.90
2019-02-07T13:05:12.185Z,9.10
2019-02-07T13:07:46.700Z,9.80
2019-02-07T13:10:20.406Z,9.97
2019-02-07T13:12:54.573Z,8.33
2019-02-07T13:15:28.373Z,9.73
2019-02-07T13:18:02.182Z,9.43
2019-02-07T13:20:35.997Z,10.80
2019-02-07T13:23:10.657Z,9.10
2019-02-07T13:25:44.545Z,10.23
2019-02-07T13:28:23.946Z,9.37
2019-02-07T13:30:58.066Z,9.43
2019-02-07T13:33:31.804Z,9.30
2019-02-07T13:36:05.784Z,9.17
2019-02-07T13:38:39.497Z,8.00
2019-02-07T13:41:13.167Z,9.07
2019-02-07T13:43:47.074Z,9.53
2019-02-07T13:46:20.885Z,9.10
2019-02-07T13:48:54.926Z,8.47
2019-02-07T13:51:28.866Z,9.07
2019-02-07T13:54:02.826Z,9.33
2019-02-07T13:56:36.686Z,9.33
2019-02-07T13:59:10.432Z,9.03
2019-02-07T14:01:44.096Z,9.27
2019-02-07T14:04:17.964Z,9.17
2019-02-07T14:06:52.108Z,8.90
2019-02-07T14:09:25.821Z,7.67
2019-02-07T14:11:59.451Z,8.97
2019-02-07T14:14:33.285Z,9.77
2019-02-07T14:17:07.007Z,8.47
2019-02-07T14:19:41.621Z,8.63
2019-02-07T14:22:15.481Z,8.83
2019-02-07T14:24:50.091Z,9.57
2019-02-07T14:27:23.873Z,9.70
2019-02-07T14:29:57.637Z,8.30
2019-02-07T14:32:31.509Z,9.27
2019-02-07T14:35:05.309Z,8.60
2019-02-07T14:37:38.989Z,9.27
2019-02-07T14:40:12.625Z,8.03
2019-02-07T14:42:46.648Z,8.93
2019-02-07T14:45:20.560Z,9.33
2019-02-07T14:47:54.640Z,9.23
2019-02-07T14:50:28.333Z,8.33
2019-02-07T14:53:02.945Z,9.60
2019-02-07T14:55:37.728Z,8.93
2019-02-07T14:58:13.062Z,8.27
2019-02-07T15:00:46.864Z,8.17
2019-02-07T15:03:20.725Z,8.90
2019-02-07T15:05:55.381Z,8.77
2019-02-07T15:08:29.162Z,9.13
2019-02-07T15:11:03.074Z,8.57
2019-02-07T15:13:36.732Z,9.07
2019-02-07T15:16:10.656Z,9.43
2019-02-07T15:18:46.188Z,10.20
2019-02-07T15:21:18.125Z,12.30
2019-02-07T15:23:52.242Z,11.03
2019-02-07T15:26:25.905Z,8.70
2019-02-07T15:28:59.818Z,7.93
2019-02-07T15:31:33.672Z,8.37
2019-02-07T15:34:08.224Z,8.70
2019-02-07T15:36:42.013Z,8.07
2019-02-07T15:39:16.226Z,7.57
2019-02-07T15:41:50.158Z,8.50
2019-02-07T15:44:24.641Z,8.37
2019-02-07T15:46:58.449Z,7.77
2019-02-07T15:49:33.337Z,8.00
2019-02-07T15:52:07.121Z,8.33
2019-02-07T15:54:40.768Z,7.57
2019-02-07T15:57:14.564Z,7.77
2019-02-07T15:59:48.278Z,7.93
2019-02-07T16:02:22.016Z,8.00
2019-02-07T16:04:55.730Z,7.80
2019-02-07T16:07:29.750Z,7.40
2019-02-07T16:10:03.397Z,7.80
2019-02-07T16:12:37.098Z,6.83
2019-02-07T16:15:11.137Z,7.97
2019-02-07T16:17:44.897Z,7.20
2019-02-07T16:20:19.441Z,7.00
2019-02-07T16:22:53.133Z,8.27
2019-02-07T16:25:27.568Z,6.90
2019-02-07T16:28:02.096Z,7.50
2019-02-07T16:30:35.752Z,7.47
2019-02-07T16:33:09.397Z,8.97
2019-02-07T16:35:43.214Z,7.37
2019-02-07T16:38:16.885Z,7.17
2019-02-07T16:40:50.780Z,8.20
2019-02-07T16:43:24.445Z,7.63
2019-02-07T16:45:58.198Z,7.33
2019-02-07T16:48:31.933Z,7.60
2019-02-07T16:51:05.780Z,7.87
2019-02-07T16:53:39.461Z,7.40
2019-02-07T16:56:13.201Z,6.97
2019-02-07T16:58:46.921Z,6.90
2019-02-07T17:01:20.672Z,8.00
2019-02-07T17:03:54.477Z,6.80
2019-02-07T17:06:29.125Z,8.23
2019-02-07T17:09:02.872Z,8.40
2019-02-07T17:11:36.604Z,8.07
2019-02-07T17:14:10.405Z,7.97
2019-02-07T17:16:44.166Z,7.07
2019-02-07T17:19:18.091Z,7.30
2019-02-07T17:21:51.900Z,7.13
2019-02-07T17:24:25.551Z,7.20
2019-02-07T17:27:00.110Z,7.30
2019-02-07T17:29:34.536Z,6.27
2019-02-07T17:32:08.256Z,8.27
2019-02-07T17:34:42.773Z,7.30
2019-02-07T17:37:16.525Z,8.20
2019-02-07T17:39:50.328Z,7.50
2019-02-07T17:42:24.945Z,7.57
2019-02-07T17:44:58.701Z,7.70
2019-02-07T17:47:32.402Z,7.87
2019-02-07T17:50:10.457Z,7.53
2019-02-07T17:52:44.117Z,7.47
2019-02-07T17:55:18.853Z,7.57
2019-02-07T17:57:52.514Z,7.57
2019-02-07T18:00:27.113Z,7.70
2019-02-07T18:03:00.871Z,7.17
2019-02-07T18:05:34.532Z,7.03
2019-02-07T18:08:08.376Z,7.23
2019-02-07T18:10:42.017Z,7.40
2019-02-07T18:13:15.762Z,7.50
2019-02-07T18:15:50.259Z,7.53
2019-02-07T18:18:24.000Z,6.60
2019-02-07T18:20:57.687Z,7.70
2019-02-07T18:23:31.513Z,7.77
2019-02-07T18:26:05.272Z,7.43
2019-02-07T18:28:39.009Z,7.30
2019-02-07T18:31:12.784Z,6.83
2019-02-07T18:33:46.505Z,7.70
2019-02-07T18:36:20.217Z,7.20
2019-02-07T18:38:53.962Z,7.30
2019-02-07T18:41:27.610Z,7.57
2019-02-07T18:44:01.388Z,7.67
2019-02-07T18:46:35.084Z,8.30
2019-02-07T18:49:08.816Z,7.23
2019-02-07T18:51:45.728Z,7.63
2019-02-07T18:54:50.434Z,7.87
2019-02-07T18:57:25.005Z,7.27
2019-02-07T18:59:58.756Z,7.60
2019-02-07T19:02:32.489Z,7.90
2019-02-07T19:05:06.260Z,7.57
2019-02-07T19:07:40.069Z,8.03
2019-02-07T19:10:14.650Z,8.00
2019-02-07T19:12:48.249Z,6.90
2019-02-07T19:15:29.705Z,7.67
2019-02-07T19:18:03.486Z,8.03
2019-02-07T19:20:37.322Z,7.80
2019-02-07T19:23:11.117Z,8.57
2019-02-07T19:25:44.847Z,7.77
2019-02-07T19:28:18.565Z,8.10
2019-02-07T19:30:53.150Z,7.40
2019-02-07T19:33:26.881Z,7.57
2019-02-07T19:36:00.699Z,8.00
2019-02-07T19:38:35.261Z,8.70
2019-02-07T19:41:09.673Z,7.20
2019-02-07T19:43:45.434Z,7.80
2019-02-07T19:46:17.824Z,7.90
2019-02-07T19:48:51.544Z,7.97
2019-02-07T19:51:25.279Z,7.67
2019-02-07T19:53:59.193Z,7.90
2019-02-07T19:56:33.672Z,6.70
2019-02-07T19:59:07.400Z,8.00
2019-02-07T20:01:41.089Z,6.80
2019-02-07T20:04:15.613Z,6.70
2019-02-07T20:06:49.362Z,6.53
2019-02-07T20:09:23.117Z,5.53
2019-02-07T20:11:57.669Z,7.17
2019-02-07T20:14:31.445Z,7.20
2019-02-07T20:17:05.098Z,6.63
2019-02-07T20:19:38.836Z,6.30
2019-02-07T20:22:19.737Z,7.00
2019-02-07T20:24:46.404Z,7.00
2019-02-07T20:27:20.020Z,6.20
2019-02-07T20:29:53.654Z,8.57
2019-02-07T20:32:27.353Z,6.67
2019-02-07T20:35:01.684Z,8.00
2019-02-07T20:37:35.546Z,7.60
2019-02-07T20:40:09.409Z,7.60
2019-02-07T20:42:43.277Z,7.50
2019-02-07T20:45:17.088Z,7.93
2019-02-07T20:47:51.525Z,6.97
2019-02-07T20:50:25.217Z,6.87
2019-02-07T20:52:58.951Z,7.10
2019-02-07T20:55:33.529Z,7.50
2019-02-07T20:58:07.286Z,6.83
2019-02-07T21:00:40.994Z,6.63
2019-02-07T21:03:14.765Z,6.23
2019-02-07T21:05:48.660Z,6.37
2019-02-07T21:08:22.568Z,6.40
2019-02-07T21:10:56.205Z,7.47
2019-02-07T21:13:30.017Z,7.07
2019-02-07T21:16:03.625Z,5.73
2019-02-07T21:18:38.432Z,5.67
2019-02-07T21:21:12.154Z,6.37
2019-02-07T21:23:45.937Z,5.93
2019-02-07T21:26:20.569Z,6.17
2019-02-07T21:28:54.396Z,6.03
2019-02-07T21:31:28.896Z,6.13
2019-02-07T21:34:02.675Z,6.83
2019-02-07T21:36:36.428Z,7.20
2019-02-07T21:39:10.233Z,6.17
2019-02-07T21:41:44.117Z,7.67
2019-02-07T21:44:17.996Z,6.67
2019-02-07T21:46:51.780Z,5.73
2019-02-07T21:49:26.347Z,6.30
2019-02-07T21:52:00.885Z,5.90
2019-02-07T21:54:34.563Z,6.33
2019-02-07T21:57:08.264Z,6.17
2019-02-07T21:59:42.244Z,6.17
2019-02-07T22:02:15.977Z,5.13
2019-02-07T22:04:50.540Z,6.20
2019-02-07T22:07:25.053Z,6.17
2019-02-07T22:09:58.724Z,6.20
2019-02-07T22:12:32.372Z,5.67
2019-02-07T22:15:07.880Z,5.83
2019-02-07T22:17:41.496Z,5.30
2019-02-07T22:20:20.065Z,5.53
2019-02-07T22:22:53.717Z,6.13
2019-02-07T22:25:36.259Z,5.23
2019-02-07T22:28:09.827Z,5.00
2019-02-07T22:30:44.432Z,5.10
2019-02-07T22:33:18.796Z,5.70
2019-02-07T22:35:52.745Z,4.60
2019-02-07T22:38:26.433Z,5.23
2019-02-07T22:41:00.838Z,5.23
2019-02-07T22:43:34.556Z,5.23
2019-02-07T22:46:08.360Z,5.00
2019-02-07T22:48:42.057Z,5.20
2019-02-07T22:51:15.836Z,5.40
2019-02-07T22:53:49.592Z,5.37
2019-02-07T22:56:23.468Z,4.97
2019-02-07T22:58:57.234Z,5.47
2019-02-07T23:01:30.924Z,4.57
2019-02-07T23:04:04.648Z,5.03
2019-02-07T23:06:38.423Z,4.63
2019-02-07T23:09:12.157Z,4.27
2019-02-07T23:11:46.628Z,4.13
2019-02-07T23:14:20.332Z,4.67
2019-02-07T23:16:54.016Z,4.53
2019-02-07T23:19:27.717Z,4.70
2019-02-07T23:22:01.529Z,4.40
2019-02-07T23:24:35.341Z,4.53
2019-02-07T23:27:09.056Z,4.30
2019-02-07T23:29:42.897Z,4.17
2019-02-07T23:32:16.641Z,3.97
2019-02-07T23:34:51.168Z,3.97
2019-02-07T23:37:25.040Z,4.17
2019-02-07T23:39:58.768Z,4.37
2019-02-07T23:42:32.360Z,3.80
2019-02-07T23:45:06.101Z,3.70
2019-02-07T23:47:39.841Z,3.77
2019-02-07T23:50:13.602Z,4.10
2019-02-07T23:52:47.298Z,3.43
2019-02-07T23:55:21.040Z,3.83
2019-02-07T23:57:55.485Z,3.03
